Inicio METAR Ruta Wind Satelite

Informe Meteorológico

Fecha: 2021/09/21 15:30:47 Local
2021.09.21 20:30 UTC


Operación:
SKAS 212000Z 00000KT 6000 -DZ SCT004 BKN008 23/23 Q1012 RMK A2990 =